createdAt,value
2023-04-29T00:01:48.830Z,5.54
2023-04-29T00:04:51.959Z,5.57
2023-04-29T00:07:54.463Z,5.69
2023-04-29T00:10:56.881Z,5.64
2023-04-29T00:13:59.371Z,5.61
2023-04-29T00:17:02.016Z,5.53
2023-04-29T00:20:04.746Z,5.42
2023-04-29T00:23:07.861Z,5.36
2023-04-29T00:26:10.285Z,5.39
2023-04-29T00:29:13.348Z,5.39
2023-04-29T00:32:15.850Z,5.31
2023-04-29T00:35:18.532Z,5.45
2023-04-29T00:38:21.449Z,5.37
2023-04-29T00:41:24.937Z,5.49
2023-04-29T00:44:27.343Z,5.39
2023-04-29T00:47:29.650Z,5.27
2023-04-29T00:50:32.310Z,5.53
2023-04-29T00:53:35.206Z,5.51
2023-04-29T00:56:38.481Z,5.49
2023-04-29T00:59:41.256Z,5.37
2023-04-29T01:02:44.716Z,5.46
2023-04-29T01:05:48.631Z,5.47
2023-04-29T01:09:18.254Z,5.50
2023-04-29T01:12:29.382Z,5.30
2023-04-29T01:15:52.872Z,5.56
2023-04-29T01:18:57.986Z,5.60
2023-04-29T01:22:06.295Z,5.49
2023-04-29T01:25:11.397Z,5.42
2023-04-29T01:29:25.130Z,5.59
2023-04-29T01:32:48.150Z,5.51
2023-04-29T01:36:09.340Z,5.55
2023-04-29T01:39:56.447Z,5.48
2023-04-29T01:43:04.412Z,5.64
2023-04-29T01:46:11.989Z,5.40
2023-04-29T01:49:16.773Z,5.60
2023-04-29T01:52:20.128Z,5.56
2023-04-29T01:55:31.426Z,5.83
2023-04-29T01:58:54.482Z,5.88
2023-04-29T02:05:41.313Z,5.74
2023-04-29T02:08:44.305Z,5.53
2023-04-29T02:11:46.875Z,5.71
2023-04-29T02:14:53.455Z,5.74
2023-04-29T02:17:56.332Z,5.79
2023-04-29T02:21:02.326Z,5.77
2023-04-29T02:24:08.551Z,5.77
2023-04-29T02:27:11.185Z,5.65
2023-04-29T02:30:13.510Z,5.60
2023-04-29T02:33:16.810Z,5.71
2023-04-29T02:36:20.058Z,5.65
2023-04-29T02:39:22.967Z,5.77
2023-04-29T02:42:25.328Z,5.80
2023-04-29T02:45:27.803Z,5.66
2023-04-29T02:48:30.391Z,5.64
2023-04-29T02:51:32.852Z,5.68
2023-04-29T02:54:36.575Z,5.67
2023-04-29T02:57:39.571Z,5.75
2023-04-29T03:00:43.117Z,5.79
2023-04-29T03:03:45.858Z,5.69
2023-04-29T03:06:48.439Z,5.75
2023-04-29T03:09:51.290Z,5.78
2023-04-29T03:12:53.734Z,5.73
2023-04-29T03:15:58.739Z,5.60
2023-04-29T03:19:01.424Z,5.58
2023-04-29T03:22:04.050Z,5.49
2023-04-29T03:25:07.294Z,5.44
2023-04-29T03:28:09.900Z,5.56
2023-04-29T03:31:16.435Z,5.64
2023-04-29T03:34:19.513Z,5.52
2023-04-29T03:37:31.222Z,5.62
2023-04-29T03:40:47.535Z,5.72
2023-04-29T03:43:51.923Z,5.80
2023-04-29T03:46:54.378Z,5.64
2023-04-29T03:49:58.200Z,5.79
2023-04-29T03:53:00.881Z,5.97
2023-04-29T03:56:04.725Z,6.08
2023-04-29T03:59:07.591Z,6.09
2023-04-29T04:02:11.026Z,6.20
2023-04-29T04:05:14.015Z,6.12
2023-04-29T04:08:20.605Z,6.21
2023-04-29T04:11:46.831Z,6.14
2023-04-29T04:14:49.886Z,6.13
2023-04-29T04:17:53.601Z,6.37
2023-04-29T04:20:56.417Z,6.26
2023-04-29T04:24:01.125Z,6.36
2023-04-29T04:27:05.513Z,6.41
2023-04-29T04:30:12.862Z,6.43
2023-04-29T04:33:16.132Z,6.51
2023-04-29T04:36:21.394Z,6.34
2023-04-29T04:39:24.343Z,6.51
2023-04-29T04:42:28.514Z,6.69
2023-04-29T04:45:33.722Z,6.83
2023-04-29T04:48:36.272Z,6.62
2023-04-29T04:51:38.981Z,6.80
2023-04-29T04:54:41.360Z,6.96
2023-04-29T04:57:51.776Z,7.28
2023-04-29T05:00:54.654Z,7.11
2023-04-29T05:03:57.722Z,7.14
2023-04-29T05:07:00.124Z,7.33
2023-04-29T05:10:09.640Z,7.53
2023-04-29T05:13:20.510Z,7.53
2023-04-29T05:16:23.269Z,7.75
2023-04-29T05:19:26.112Z,7.74
2023-04-29T05:22:28.622Z,7.79
2023-04-29T05:25:32.099Z,7.84
2023-04-29T05:28:34.793Z,7.75
2023-04-29T05:31:38.776Z,7.68
2023-04-29T05:34:41.347Z,7.68
2023-04-29T05:37:44.521Z,7.78
2023-04-29T05:41:09.644Z,7.90
2023-04-29T05:44:12.125Z,8.08
2023-04-29T05:47:14.805Z,7.86
2023-04-29T05:50:18.573Z,8.01
2023-04-29T05:53:21.563Z,7.94
2023-04-29T05:56:25.559Z,8.10
2023-04-29T05:59:28.189Z,8.23
2023-04-29T06:02:31.315Z,8.30
2023-04-29T06:05:34.906Z,8.25
2023-04-29T06:09:19.945Z,8.29
2023-04-29T06:12:31.879Z,8.36
2023-04-29T06:15:35.178Z,8.78
2023-04-29T06:18:38.648Z,8.78
2023-04-29T06:21:41.173Z,9.00
2023-04-29T06:24:43.945Z,9.34
2023-04-29T06:27:49.538Z,9.43
2023-04-29T06:30:55.563Z,9.25
2023-04-29T06:33:58.098Z,9.70
2023-04-29T06:37:01.270Z,9.80
2023-04-29T06:40:24.958Z,10.01
2023-04-29T06:43:48.539Z,10.08
2023-04-29T06:47:10.078Z,10.65
2023-04-29T06:50:21.207Z,10.67
2023-04-29T06:53:24.176Z,11.25
2023-04-29T06:56:27.078Z,11.41
2023-04-29T06:59:29.524Z,11.58
2023-04-29T07:02:32.251Z,11.64
2023-04-29T07:05:36.105Z,11.51
2023-04-29T07:08:38.808Z,11.60
2023-04-29T07:11:41.557Z,11.58
2023-04-29T07:14:44.036Z,11.62
2023-04-29T07:17:46.404Z,11.99
2023-04-29T07:20:51.214Z,12.45
2023-04-29T07:23:55.129Z,12.37
2023-04-29T07:26:57.726Z,12.21
2023-04-29T07:30:04.104Z,12.28
2023-04-29T07:33:06.675Z,12.50
2023-04-29T07:36:09.519Z,12.27
2023-04-29T07:39:12.757Z,13.03
2023-04-29T07:42:15.824Z,13.08
2023-04-29T07:45:18.415Z,13.16
2023-04-29T07:48:21.575Z,13.29
2023-04-29T07:51:23.929Z,13.18
2023-04-29T07:54:27.917Z,13.55
2023-04-29T07:57:30.748Z,13.68
2023-04-29T08:00:33.555Z,13.79
2023-04-29T08:03:37.553Z,14.04
2023-04-29T08:06:42.695Z,14.25
2023-04-29T08:09:47.307Z,14.29
2023-04-29T08:12:50.673Z,14.06
2023-04-29T08:15:53.943Z,14.08
2023-04-29T08:18:56.328Z,14.10
2023-04-29T08:21:59.378Z,14.14
2023-04-29T08:25:03.302Z,14.06
2023-04-29T08:28:05.831Z,14.30
2023-04-29T08:31:10.879Z,14.21
2023-04-29T08:34:13.350Z,14.49
2023-04-29T08:37:18.426Z,14.79
2023-04-29T08:40:21.073Z,14.99
2023-04-29T08:43:26.998Z,14.98
2023-04-29T08:46:30.423Z,15.19
2023-04-29T08:49:34.166Z,15.42
2023-04-29T08:52:36.534Z,15.50
2023-04-29T08:55:47.239Z,15.74
2023-04-29T08:58:58.301Z,15.89
2023-04-29T09:02:01.382Z,15.57
2023-04-29T09:05:11.297Z,15.26
2023-04-29T09:08:13.891Z,15.19
2023-04-29T09:11:16.594Z,15.35
2023-04-29T09:14:19.773Z,15.28
2023-04-29T09:17:42.392Z,15.24
2023-04-29T09:20:44.869Z,15.25
2023-04-29T09:23:49.919Z,15.06
2023-04-29T09:26:53.075Z,15.10
2023-04-29T09:30:02.576Z,14.98
2023-04-29T09:33:09.758Z,14.94
2023-04-29T09:36:12.218Z,14.97
2023-04-29T09:39:22.615Z,14.88
2023-04-29T09:42:25.607Z,15.28
2023-04-29T09:45:37.928Z,15.31
2023-04-29T09:48:40.402Z,15.65
2023-04-29T09:51:56.748Z,15.74
2023-04-29T09:55:06.343Z,15.84
2023-04-29T09:58:08.951Z,15.85
2023-04-29T10:01:13.651Z,15.81
2023-04-29T10:04:17.114Z,15.63
2023-04-29T10:07:20.444Z,15.62
2023-04-29T10:10:24.689Z,15.60
2023-04-29T10:13:28.482Z,15.48
2023-04-29T10:16:33.171Z,15.34
2023-04-29T10:19:40.193Z,15.56
2023-04-29T10:22:47.986Z,15.66
2023-04-29T10:25:53.939Z,15.74
2023-04-29T10:28:57.502Z,15.69
2023-04-29T10:32:01.697Z,15.52
2023-04-29T10:35:06.061Z,15.63
2023-04-29T10:38:14.311Z,15.67
2023-04-29T10:41:29.120Z,15.66
2023-04-29T10:44:32.484Z,15.73
2023-04-29T10:47:35.080Z,16.02
2023-04-29T10:50:46.176Z,15.81
2023-04-29T10:54:10.236Z,15.94
2023-04-29T10:57:22.117Z,15.68
2023-04-29T11:00:28.925Z,15.63
2023-04-29T11:03:55.666Z,15.61
2023-04-29T11:07:03.237Z,15.71
2023-04-29T11:10:06.386Z,15.51
2023-04-29T11:13:28.721Z,15.52
2023-04-29T11:16:31.264Z,15.29
2023-04-29T11:19:52.885Z,15.18
2023-04-29T11:22:56.874Z,15.29
2023-04-29T11:25:59.803Z,15.08
2023-04-29T11:29:02.754Z,15.02
2023-04-29T11:32:06.179Z,14.78
2023-04-29T11:35:15.706Z,14.83
2023-04-29T11:38:18.089Z,15.04
2023-04-29T11:41:22.044Z,15.17
2023-04-29T11:44:24.617Z,15.09
2023-04-29T11:47:31.051Z,15.33
2023-04-29T11:50:34.069Z,15.40
2023-04-29T11:53:36.626Z,15.60
2023-04-29T11:56:39.216Z,15.77
2023-04-29T11:59:43.305Z,15.82
2023-04-29T12:02:47.879Z,15.73
2023-04-29T12:05:54.385Z,15.66
2023-04-29T12:09:00.538Z,15.90
2023-04-29T12:12:03.106Z,15.82
2023-04-29T12:15:06.603Z,15.61
2023-04-29T12:18:09.279Z,15.52
2023-04-29T12:21:11.788Z,15.28
2023-04-29T12:24:14.416Z,15.30
2023-04-29T12:27:17.308Z,15.31
2023-04-29T12:30:21.447Z,15.24
2023-04-29T12:33:26.866Z,15.18
2023-04-29T12:36:29.885Z,15.28
2023-04-29T12:39:33.283Z,15.26
2023-04-29T12:42:35.831Z,15.32
2023-04-29T12:45:39.461Z,15.55
2023-04-29T12:48:43.895Z,15.51
2023-04-29T12:51:46.645Z,15.53
2023-04-29T12:54:49.029Z,15.66
2023-04-29T12:57:51.695Z,15.85
2023-04-29T13:00:54.407Z,16.14
2023-04-29T13:03:56.926Z,16.25
2023-04-29T13:07:04.188Z,16.30
2023-04-29T13:10:07.550Z,16.75
2023-04-29T13:13:10.177Z,16.42
2023-04-29T13:16:12.722Z,16.64
2023-04-29T13:19:32.153Z,17.00
2023-04-29T13:22:38.222Z,17.21
2023-04-29T13:25:40.717Z,17.19
2023-04-29T13:28:43.648Z,17.09
2023-04-29T13:31:46.222Z,17.25
2023-04-29T13:34:48.609Z,17.29
2023-04-29T13:37:50.997Z,17.63
2023-04-29T13:40:54.934Z,17.54
2023-04-29T13:43:58.735Z,17.54
2023-04-29T13:47:01.814Z,17.40
2023-04-29T13:53:41.285Z,17.46
2023-04-29T13:59:42.882Z,17.19
2023-04-29T14:06:01.816Z,17.05
2023-04-29T14:09:04.449Z,17.26
2023-04-29T14:12:06.938Z,17.36
2023-04-29T14:15:09.652Z,17.41
2023-04-29T14:18:12.301Z,17.64
2023-04-29T14:21:14.671Z,17.73
2023-04-29T14:24:17.049Z,17.82
2023-04-29T14:27:19.420Z,17.81
2023-04-29T14:30:21.904Z,17.88
2023-04-29T14:33:24.588Z,17.67
2023-04-29T14:36:28.365Z,17.59
2023-04-29T14:39:30.742Z,17.71
2023-04-29T14:42:33.169Z,17.77
2023-04-29T14:45:37.818Z,17.72
2023-04-29T14:48:40.341Z,17.65
2023-04-29T14:51:42.881Z,17.35
2023-04-29T14:54:45.315Z,17.18
2023-04-29T14:57:47.753Z,17.04
2023-04-29T15:00:51.084Z,17.04
2023-04-29T15:03:53.672Z,17.07
2023-04-29T15:06:55.986Z,16.88
2023-04-29T15:09:58.426Z,16.66
2023-04-29T15:13:01.559Z,16.43
2023-04-29T15:16:04.529Z,16.31
2023-04-29T15:19:06.929Z,16.24
2023-04-29T15:22:09.364Z,16.23
2023-04-29T15:25:11.760Z,16.23
2023-04-29T15:28:14.263Z,16.05
2023-04-29T15:31:16.668Z,15.93
2023-04-29T15:34:19.369Z,15.79
2023-04-29T15:37:23.153Z,15.69
2023-04-29T15:40:26.418Z,15.63
2023-04-29T15:43:29.774Z,15.38
2023-04-29T15:46:32.643Z,15.45
2023-04-29T15:49:35.511Z,15.30
2023-04-29T15:52:37.831Z,15.28
2023-04-29T15:55:40.287Z,14.99
2023-04-29T15:58:42.701Z,15.12
2023-04-29T16:01:45.349Z,15.07
2023-04-29T16:04:47.837Z,15.05
2023-04-29T16:07:50.145Z,15.06
2023-04-29T16:10:52.587Z,14.88
2023-04-29T16:13:54.883Z,14.82
2023-04-29T16:16:57.365Z,14.78
2023-04-29T16:20:00.007Z,14.69
2023-04-29T16:23:02.381Z,14.78
2023-04-29T16:26:04.837Z,14.79
2023-04-29T16:29:08.007Z,14.80
2023-04-29T16:32:10.397Z,14.80
2023-04-29T16:35:13.077Z,14.80
2023-04-29T16:38:15.670Z,14.81
2023-04-29T16:41:18.269Z,14.81
2023-04-29T16:44:20.769Z,14.75
2023-04-29T16:47:24.230Z,14.78
2023-04-29T16:50:27.156Z,14.66
2023-04-29T16:53:29.498Z,14.79
2023-04-29T16:56:32.038Z,14.60
2023-04-29T16:59:34.839Z,14.45
2023-04-29T17:02:40.366Z,14.28
2023-04-29T17:05:42.947Z,14.11
2023-04-29T17:08:45.946Z,13.94
2023-04-29T17:11:50.272Z,13.87
2023-04-29T17:14:52.817Z,13.90
2023-04-29T17:17:55.945Z,14.05
2023-04-29T17:20:58.680Z,14.18
2023-04-29T17:24:01.286Z,14.15
2023-04-29T17:27:04.093Z,14.02
2023-04-29T17:30:07.972Z,13.81
2023-04-29T17:33:10.619Z,14.04
2023-04-29T17:36:13.005Z,14.14
2023-04-29T17:39:15.464Z,13.83
2023-04-29T17:42:18.069Z,13.68
2023-04-29T17:45:20.595Z,13.58
2023-04-29T17:48:22.952Z,13.24
2023-04-29T17:51:26.520Z,13.30
2023-04-29T17:54:29.479Z,13.31
2023-04-29T17:57:32.250Z,13.33
2023-04-29T18:00:38.968Z,13.48
2023-04-29T18:03:42.186Z,13.39
2023-04-29T18:06:44.799Z,13.09
2023-04-29T18:09:47.320Z,13.03
2023-04-29T18:12:49.741Z,12.99
2023-04-29T18:15:52.284Z,13.06
2023-04-29T18:18:56.812Z,13.01
2023-04-29T18:22:01.451Z,12.87
2023-04-29T18:25:03.895Z,12.66
2023-04-29T18:28:19.391Z,12.69
2023-04-29T18:31:26.581Z,12.54
2023-04-29T18:34:29.426Z,12.50
2023-04-29T18:37:31.956Z,12.34
2023-04-29T18:40:36.346Z,12.34
2023-04-29T18:43:38.547Z,12.42
2023-04-29T18:46:41.360Z,12.17
2023-04-29T18:49:45.031Z,12.16
2023-04-29T18:52:48.113Z,12.05
2023-04-29T18:55:50.818Z,12.01
2023-04-29T18:58:53.899Z,11.90
2023-04-29T19:01:56.548Z,11.83
2023-04-29T19:05:02.968Z,11.72
2023-04-29T19:08:05.907Z,11.70
2023-04-29T19:11:08.215Z,11.60
2023-04-29T19:14:10.724Z,11.25
2023-04-29T19:17:13.070Z,10.91
2023-04-29T19:20:15.552Z,10.68
2023-04-29T19:23:18.675Z,10.52
2023-04-29T19:26:21.068Z,10.43
2023-04-29T19:29:23.395Z,10.37
2023-04-29T19:32:26.690Z,10.28
2023-04-29T19:35:30.652Z,10.10
2023-04-29T19:38:33.136Z,10.15
2023-04-29T19:41:36.638Z,10.12
2023-04-29T19:44:39.241Z,10.04
2023-04-29T19:47:41.854Z,10.07
2023-04-29T19:50:44.288Z,10.02
2023-04-29T19:53:46.852Z,10.08
2023-04-29T19:56:49.184Z,10.04
2023-04-29T19:59:51.979Z,9.89
2023-04-29T20:02:54.586Z,9.85
2023-04-29T20:05:59.393Z,9.75
2023-04-29T20:09:01.896Z,9.67
2023-04-29T20:12:04.924Z,9.64
2023-04-29T20:15:08.308Z,9.69
2023-04-29T20:18:11.044Z,9.72
2023-04-29T20:21:13.470Z,9.72
2023-04-29T20:24:16.192Z,9.62
2023-04-29T20:27:18.798Z,9.63
2023-04-29T20:30:21.951Z,9.60
2023-04-29T20:33:24.465Z,9.55
2023-04-29T20:36:28.593Z,9.54
2023-04-29T20:39:31.160Z,9.49
2023-04-29T20:42:33.631Z,9.42
2023-04-29T20:45:38.335Z,9.35
2023-04-29T20:48:41.091Z,9.25
2023-04-29T20:51:43.744Z,9.31
2023-04-29T20:54:46.418Z,9.27
2023-04-29T20:57:49.148Z,9.26
2023-04-29T21:00:51.434Z,9.32
2023-04-29T21:03:53.765Z,9.34
2023-04-29T21:06:56.505Z,9.35
2023-04-29T21:09:59.105Z,9.38
2023-04-29T21:13:01.824Z,9.35
2023-04-29T21:16:04.903Z,9.25
2023-04-29T21:19:07.797Z,9.29
2023-04-29T21:22:10.327Z,9.27
2023-04-29T21:25:12.622Z,9.26
2023-04-29T21:28:16.799Z,9.29
2023-04-29T21:31:19.402Z,9.19
2023-04-29T21:34:22.099Z,9.14
2023-04-29T21:37:25.550Z,9.18
2023-04-29T21:40:28.295Z,9.17
2023-04-29T21:43:30.746Z,9.17
2023-04-29T21:46:33.596Z,9.17
2023-04-29T21:49:36.744Z,9.14
2023-04-29T21:52:39.166Z,9.10
2023-04-29T21:55:41.923Z,8.97
2023-04-29T21:58:44.932Z,8.99
2023-04-29T22:01:47.357Z,8.76
2023-04-29T22:04:51.528Z,8.78
2023-04-29T22:07:54.131Z,8.76
2023-04-29T22:10:56.515Z,8.69
2023-04-29T22:13:58.844Z,8.50
2023-04-29T22:17:01.193Z,8.42
2023-04-29T22:20:04.390Z,8.38
2023-04-29T22:23:07.012Z,8.39
2023-04-29T22:26:09.568Z,8.30
2023-04-29T22:29:12.288Z,8.36
2023-04-29T22:32:14.683Z,8.30
2023-04-29T22:35:17.243Z,8.32
2023-04-29T22:38:20.211Z,8.41
2023-04-29T22:41:22.626Z,8.49
2023-04-29T22:44:26.292Z,8.25
2023-04-29T22:47:28.904Z,8.35
2023-04-29T22:50:31.350Z,8.19
2023-04-29T22:53:33.738Z,8.05
2023-04-29T22:56:36.261Z,8.03
2023-04-29T22:59:38.647Z,7.98
2023-04-29T23:02:41.077Z,7.99
2023-04-29T23:05:46.083Z,7.94
2023-04-29T23:08:48.820Z,7.88
2023-04-29T23:11:51.186Z,7.88
2023-04-29T23:14:53.708Z,7.84
2023-04-29T23:17:56.627Z,7.69
2023-04-29T23:20:59.202Z,7.76
2023-04-29T23:24:01.801Z,7.61
2023-04-29T23:27:04.325Z,7.54
2023-04-29T23:30:09.670Z,7.51
2023-04-29T23:33:12.727Z,7.42
2023-04-29T23:36:15.160Z,7.35
2023-04-29T23:39:17.514Z,7.47
2023-04-29T23:42:20.070Z,7.31
2023-04-29T23:45:22.475Z,7.26
2023-04-29T23:48:25.767Z,7.17
2023-04-29T23:51:28.371Z,7.22
2023-04-29T23:54:30.914Z,7.01
2023-04-29T23:57:33.229Z,6.95
